createdAt,value
2023-01-07T00:01:35.369Z,5.95
2023-01-07T00:04:03.647Z,5.75
2023-01-07T00:06:34.750Z,6.07
2023-01-07T00:09:01.921Z,6.53
2023-01-07T00:11:29.820Z,6.65
2023-01-07T00:13:57.437Z,8.80
2023-01-07T00:16:25.789Z,7.20
2023-01-07T00:18:53.185Z,7.85
2023-01-07T00:21:20.640Z,7.20
2023-01-07T00:23:47.722Z,7.45
2023-01-07T00:26:14.789Z,6.72
2023-01-07T00:28:42.278Z,7.00
2023-01-07T00:31:13.302Z,6.50
2023-01-07T00:33:49.269Z,6.45
2023-01-07T00:36:16.399Z,6.18
2023-01-07T00:38:43.456Z,6.63
2023-01-07T00:41:10.627Z,6.45
2023-01-07T00:43:37.700Z,5.97
2023-01-07T00:46:04.815Z,5.78
2023-01-07T00:48:31.909Z,5.50
2023-01-07T00:50:58.953Z,5.47
2023-01-07T00:53:25.996Z,5.60
2023-01-07T00:55:53.041Z,5.43
2023-01-07T00:58:21.549Z,5.20
2023-01-07T01:00:48.761Z,5.43
2023-01-07T01:03:15.956Z,4.68
2023-01-07T01:05:43.000Z,4.75
2023-01-07T01:08:10.067Z,5.25
2023-01-07T01:10:37.166Z,4.72
2023-01-07T01:13:04.407Z,4.93
2023-01-07T01:15:31.464Z,4.80
2023-01-07T01:17:58.489Z,4.32
2023-01-07T01:20:25.513Z,4.88
2023-01-07T01:22:52.553Z,4.60
2023-01-07T01:25:19.595Z,4.30
2023-01-07T01:27:46.736Z,4.55
2023-01-07T01:30:13.907Z,4.75
2023-01-07T01:32:40.958Z,4.88
2023-01-07T01:35:08.207Z,5.40
2023-01-07T01:37:35.231Z,5.05
2023-01-07T01:40:05.415Z,5.28
2023-01-07T01:42:32.442Z,5.45
2023-01-07T01:45:02.257Z,5.05
2023-01-07T01:47:46.126Z,5.07
2023-01-07T01:50:22.277Z,5.57
2023-01-07T01:52:52.492Z,4.88
2023-01-07T01:55:20.472Z,4.78
2023-01-07T01:57:47.560Z,4.20
2023-01-07T02:00:16.527Z,4.60
2023-01-07T02:02:47.848Z,4.60
2023-01-07T02:05:15.078Z,5.10
2023-01-07T02:07:42.186Z,5.10
2023-01-07T02:10:16.796Z,5.80
2023-01-07T02:12:50.707Z,5.43
2023-01-07T02:15:29.804Z,5.50
2023-01-07T02:18:00.749Z,5.43
2023-01-07T02:20:31.527Z,5.30
2023-01-07T02:23:08.208Z,5.30
2023-01-07T02:25:46.275Z,4.95
2023-01-07T02:28:38.207Z,4.93
2023-01-07T02:31:17.650Z,4.97
2023-01-07T02:33:47.766Z,4.88
2023-01-07T02:36:20.739Z,4.93
2023-01-07T02:39:03.494Z,4.63
2023-01-07T02:41:34.727Z,4.55
2023-01-07T02:44:08.247Z,4.55
2023-01-07T02:46:55.605Z,4.75
2023-01-07T02:49:22.654Z,4.90
2023-01-07T02:51:51.893Z,4.70
2023-01-07T02:54:20.871Z,4.45
2023-01-07T02:56:52.794Z,4.35
2023-01-07T02:59:24.463Z,4.32
2023-01-07T03:02:00.791Z,4.50
2023-01-07T03:04:43.246Z,4.32
2023-01-07T03:07:20.535Z,4.32
2023-01-07T03:09:53.824Z,3.55
2023-01-07T03:12:20.882Z,4.45
2023-01-07T03:15:05.756Z,4.20
2023-01-07T03:17:34.655Z,4.30
2023-01-07T03:20:01.975Z,4.18
2023-01-07T03:22:29.919Z,4.40
2023-01-07T03:24:57.363Z,4.35
2023-01-07T03:27:24.468Z,4.45
2023-01-07T03:29:52.381Z,4.03
2023-01-07T03:32:22.228Z,4.63
2023-01-07T03:34:49.302Z,4.43
2023-01-07T03:37:17.079Z,4.72
2023-01-07T03:39:44.881Z,4.30
2023-01-07T03:42:30.826Z,4.40
2023-01-07T03:44:58.116Z,4.28
2023-01-07T03:47:25.160Z,4.72
2023-01-07T03:49:52.252Z,4.57
2023-01-07T03:52:19.378Z,4.47
2023-01-07T03:54:46.456Z,4.80
2023-01-07T03:57:13.531Z,3.78
2023-01-07T03:59:40.537Z,3.88
2023-01-07T04:02:07.838Z,4.10
2023-01-07T04:04:35.008Z,4.78
2023-01-07T04:07:02.119Z,3.63
2023-01-07T04:09:29.181Z,4.15
2023-01-07T04:11:56.217Z,4.40
2023-01-07T04:14:23.325Z,4.20
2023-01-07T04:16:51.359Z,4.28
2023-01-07T04:19:18.614Z,4.35
2023-01-07T04:21:45.660Z,4.20
2023-01-07T04:24:12.715Z,4.35
2023-01-07T04:26:39.788Z,3.88
2023-01-07T04:29:06.918Z,3.78
2023-01-07T04:31:34.252Z,3.92
2023-01-07T04:34:01.373Z,4.05
2023-01-07T04:36:28.409Z,3.80
2023-01-07T04:38:55.471Z,4.05
2023-01-07T04:41:22.485Z,4.20
2023-01-07T04:43:49.511Z,4.20
2023-01-07T04:46:16.577Z,4.25
2023-01-07T04:48:43.637Z,4.40
2023-01-07T04:51:10.719Z,4.28
2023-01-07T04:53:37.797Z,4.60
2023-01-07T04:56:06.331Z,4.30
2023-01-07T04:58:33.448Z,4.30
2023-01-07T05:01:03.087Z,5.07
2023-01-07T05:03:30.820Z,5.13
2023-01-07T05:05:57.972Z,5.63
2023-01-07T05:08:25.002Z,4.90
2023-01-07T05:10:52.292Z,5.30
2023-01-07T05:13:19.880Z,4.80
2023-01-07T05:15:47.211Z,5.18
2023-01-07T05:18:14.374Z,5.28
2023-01-07T05:20:41.449Z,5.38
2023-01-07T05:23:08.589Z,5.55
2023-01-07T05:25:35.720Z,5.20
2023-01-07T05:28:02.830Z,5.35
2023-01-07T05:30:29.971Z,5.72
2023-01-07T05:32:57.083Z,6.03
2023-01-07T05:35:24.139Z,6.45
2023-01-07T05:37:51.162Z,5.72
2023-01-07T05:40:18.324Z,5.55
2023-01-07T05:42:45.407Z,6.18
2023-01-07T05:45:12.625Z,6.50
2023-01-07T05:47:39.666Z,6.28
2023-01-07T05:50:07.062Z,6.25
2023-01-07T05:52:34.165Z,7.03
2023-01-07T05:55:01.281Z,7.20
2023-01-07T05:57:28.312Z,6.72
2023-01-07T05:59:55.348Z,7.15
2023-01-07T06:02:22.481Z,7.50
2023-01-07T06:04:49.642Z,7.32
2023-01-07T06:07:16.838Z,7.43
2023-01-07T06:09:43.901Z,7.22
2023-01-07T06:12:10.989Z,7.78
2023-01-07T06:14:38.037Z,8.98
2023-01-07T06:17:05.067Z,8.50
2023-01-07T06:19:32.075Z,8.50
2023-01-07T06:21:59.595Z,8.77
2023-01-07T06:24:26.756Z,8.93
2023-01-07T06:26:53.920Z,8.82
2023-01-07T06:29:21.003Z,8.00
2023-01-07T06:31:48.115Z,8.70
2023-01-07T06:34:15.214Z,8.48
2023-01-07T06:36:42.269Z,8.50
2023-01-07T06:39:09.318Z,7.75
2023-01-07T06:41:36.446Z,8.30
2023-01-07T06:44:03.540Z,8.35
2023-01-07T06:46:30.850Z,7.45
2023-01-07T06:48:58.100Z,8.32
2023-01-07T06:51:25.234Z,8.25
2023-01-07T06:53:52.400Z,8.65
2023-01-07T06:56:19.486Z,8.10
2023-01-07T06:58:46.515Z,9.27
2023-01-07T07:01:13.732Z,9.15
2023-01-07T07:03:40.928Z,8.95
2023-01-07T07:06:08.256Z,8.52
2023-01-07T07:08:35.305Z,9.05
2023-01-07T07:11:02.368Z,10.15
2023-01-07T07:13:29.471Z,9.63
2023-01-07T07:15:56.571Z,9.13
2023-01-07T07:18:23.664Z,8.93
2023-01-07T07:20:50.695Z,8.98
2023-01-07T07:23:17.789Z,9.10
2023-01-07T07:25:44.848Z,8.70
2023-01-07T07:28:11.929Z,8.93
2023-01-07T07:30:46.788Z,8.70
2023-01-07T07:33:15.326Z,8.70
2023-01-07T07:35:42.616Z,8.80
2023-01-07T07:38:09.765Z,8.93
2023-01-07T07:40:37.016Z,9.00
2023-01-07T07:43:10.379Z,8.35
2023-01-07T07:45:39.631Z,9.10
2023-01-07T07:48:09.292Z,9.00
2023-01-07T07:50:36.372Z,9.57
2023-01-07T07:53:03.504Z,8.95
2023-01-07T07:55:30.618Z,8.90
2023-01-07T07:57:58.304Z,8.95
2023-01-07T08:00:25.565Z,8.18
2023-01-07T08:02:52.682Z,8.45
2023-01-07T08:05:19.838Z,7.75
2023-01-07T08:07:46.885Z,8.23
2023-01-07T08:10:13.924Z,7.93
2023-01-07T08:12:41.187Z,8.45
2023-01-07T08:15:08.434Z,8.13
2023-01-07T08:17:36.365Z,7.57
2023-01-07T08:20:04.319Z,8.57
2023-01-07T08:22:31.496Z,8.25
2023-01-07T08:24:58.622Z,7.07
2023-01-07T08:27:27.817Z,6.38
2023-01-07T08:29:55.272Z,7.20
2023-01-07T08:39:19.929Z,5.63
2023-01-07T08:41:47.051Z,5.07
2023-01-07T08:44:14.150Z,5.43
2023-01-07T08:46:42.705Z,4.82
2023-01-07T08:49:10.636Z,5.30
2023-01-07T08:51:37.998Z,4.95
2023-01-07T08:54:05.097Z,4.47
2023-01-07T08:56:33.541Z,4.47
2023-01-07T08:59:00.784Z,4.70
2023-01-07T09:01:27.976Z,4.60
2023-01-07T09:03:55.080Z,4.60
2023-01-07T09:06:23.050Z,6.57
2023-01-07T09:08:50.422Z,4.55
2023-01-07T09:11:17.510Z,4.32
2023-01-07T09:13:44.533Z,4.20
2023-01-07T09:16:11.757Z,4.00
2023-01-07T09:18:38.808Z,3.80
2023-01-07T09:21:05.923Z,4.15
2023-01-07T09:23:32.981Z,3.75
2023-01-07T09:26:00.103Z,4.13
2023-01-07T09:28:27.169Z,4.93
2023-01-07T09:30:56.697Z,3.83
2023-01-07T09:33:24.023Z,3.70
2023-01-07T09:35:51.084Z,2.80
2023-01-07T09:38:18.163Z,3.65
2023-01-07T09:40:45.347Z,3.00
2023-01-07T09:43:15.446Z,2.88
2023-01-07T09:46:02.752Z,2.72
2023-01-07T09:48:36.834Z,2.60
2023-01-07T09:51:15.995Z,3.17
2023-01-07T09:53:43.797Z,3.15
2023-01-07T09:56:31.172Z,2.90
2023-01-07T09:58:58.700Z,2.95
2023-01-07T10:01:25.826Z,2.53
2023-01-07T10:03:56.076Z,2.88
2023-01-07T10:06:44.497Z,2.20
2023-01-07T10:09:15.253Z,2.70
2023-01-07T10:11:55.526Z,2.25
2023-01-07T10:14:25.716Z,2.28
2023-01-07T10:16:52.809Z,3.00
2023-01-07T10:19:38.793Z,12.27
2023-01-07T10:22:10.547Z,3.17
2023-01-07T10:24:41.999Z,2.90
2023-01-07T10:27:11.044Z,2.90
2023-01-07T10:29:45.861Z,4.30
2023-01-07T10:32:16.886Z,2.53
2023-01-07T10:34:47.726Z,2.60
2023-01-07T10:37:28.202Z,4.75
2023-01-07T10:40:00.420Z,2.70
2023-01-07T10:42:30.538Z,2.45
2023-01-07T10:45:00.391Z,2.88
2023-01-07T10:47:46.943Z,2.83
2023-01-07T10:50:20.110Z,2.58
2023-01-07T10:52:54.280Z,2.60
2023-01-07T10:55:21.360Z,2.60
2023-01-07T10:57:48.948Z,2.88
2023-01-07T11:00:16.580Z,3.25
2023-01-07T11:02:44.309Z,3.13
2023-01-07T11:05:13.462Z,3.60
2023-01-07T11:07:45.166Z,3.28
2023-01-07T11:10:16.635Z,3.38
2023-01-07T11:12:45.796Z,3.90
2023-01-07T11:15:33.043Z,3.05
2023-01-07T11:18:03.719Z,3.35
2023-01-07T11:20:43.971Z,4.10
2023-01-07T11:23:30.413Z,4.60
2023-01-07T11:26:17.913Z,4.25
2023-01-07T11:28:49.660Z,3.58
2023-01-07T11:31:17.364Z,3.53
2023-01-07T11:34:02.929Z,2.85
2023-01-07T11:36:43.486Z,2.47
2023-01-07T11:39:18.821Z,2.15
2023-01-07T11:41:52.814Z,2.03
2023-01-07T11:44:20.065Z,3.72
2023-01-07T11:46:47.186Z,4.38
2023-01-07T11:49:24.909Z,2.80
2023-01-07T11:51:52.030Z,1.67
2023-01-07T11:54:23.181Z,2.05
2023-01-07T11:56:50.203Z,1.67
2023-01-07T11:59:17.905Z,1.65
2023-01-07T12:01:59.221Z,1.60
2023-01-07T12:04:30.582Z,1.98
2023-01-07T12:07:01.662Z,1.40
2023-01-07T12:09:35.025Z,1.48
2023-01-07T12:12:28.131Z,1.50
2023-01-07T12:14:55.177Z,1.65
2023-01-07T12:17:22.793Z,1.92
2023-01-07T12:19:53.960Z,3.25
2023-01-07T12:22:21.022Z,6.60
2023-01-07T12:24:50.951Z,3.85
2023-01-07T12:27:27.636Z,3.90
2023-01-07T12:30:13.688Z,3.97
2023-01-07T12:32:40.739Z,2.95
2023-01-07T12:35:14.463Z,2.80
2023-01-07T12:37:48.536Z,2.15
2023-01-07T12:40:19.129Z,2.10
2023-01-07T12:45:16.153Z,2.00
2023-01-07T12:47:46.424Z,2.10
2023-01-07T12:50:13.549Z,2.20
2023-01-07T12:52:47.579Z,2.20
2023-01-07T12:55:18.719Z,1.80
2023-01-07T12:57:46.500Z,1.70
2023-01-07T13:00:18.096Z,1.75
2023-01-07T13:02:48.668Z,1.40
2023-01-07T13:07:58.146Z,1.38
2023-01-07T13:10:26.217Z,1.70
2023-01-07T13:12:55.557Z,1.40
2023-01-07T13:15:33.680Z,1.70
2023-01-07T13:18:09.108Z,1.80
2023-01-07T13:20:55.017Z,1.70
2023-01-07T13:23:28.339Z,1.52
2023-01-07T13:26:05.906Z,2.08
2023-01-07T13:28:51.156Z,2.08
2023-01-07T13:31:30.307Z,2.05
2023-01-07T13:34:07.946Z,2.00
2023-01-07T13:36:53.862Z,1.60
2023-01-07T13:39:33.199Z,1.50
2023-01-07T13:42:03.025Z,1.70
2023-01-07T13:44:35.872Z,1.83
2023-01-07T13:47:03.236Z,1.60
2023-01-07T13:49:31.635Z,2.00
2023-01-07T13:52:19.050Z,1.70
2023-01-07T13:54:49.327Z,1.67
2023-01-07T13:57:43.083Z,2.13
2023-01-07T14:00:28.824Z,2.00
2023-01-07T14:02:56.477Z,1.92
2023-01-07T14:05:27.316Z,2.10
2023-01-07T14:08:01.241Z,2.85
2023-01-07T14:10:31.320Z,2.72
2023-01-07T14:13:12.841Z,2.80
2023-01-07T14:15:53.829Z,2.25
2023-01-07T14:18:39.050Z,2.38
2023-01-07T14:21:08.996Z,1.60
2023-01-07T14:23:39.931Z,2.40
2023-01-07T14:26:25.987Z,2.70
2023-01-07T14:28:56.857Z,3.50
2023-01-07T14:31:24.519Z,3.58
2023-01-07T14:33:52.946Z,4.38
2023-01-07T14:36:20.007Z,5.07
2023-01-07T14:38:47.997Z,3.65
2023-01-07T14:41:18.117Z,2.83
2023-01-07T14:43:48.248Z,2.13
2023-01-07T14:46:24.596Z,1.75
2023-01-07T14:49:03.879Z,1.60
2023-01-07T14:51:49.741Z,1.20
2023-01-07T14:54:25.953Z,1.90
2023-01-07T14:56:58.934Z,1.50
2023-01-07T14:59:26.053Z,2.33
2023-01-07T15:02:03.916Z,1.30
2023-01-07T15:04:49.827Z,1.50
2023-01-07T15:07:17.994Z,1.65
2023-01-07T15:10:04.244Z,1.80
2023-01-07T15:12:50.954Z,1.50
2023-01-07T15:15:43.503Z,1.60
2023-01-07T15:18:10.915Z,1.38
2023-01-07T15:20:47.221Z,1.40
2023-01-07T15:23:18.425Z,1.58
2023-01-07T15:25:51.626Z,1.35
2023-01-07T15:28:20.952Z,1.45
2023-01-07T15:31:06.795Z,1.60
2023-01-07T15:33:40.480Z,1.83
2023-01-07T15:36:09.476Z,2.25
2023-01-07T15:38:44.614Z,1.50
2023-01-07T15:41:29.992Z,1.63
2023-01-07T15:43:57.108Z,1.50
2023-01-07T15:46:24.908Z,1.38
2023-01-07T15:49:24.552Z,1.58
2023-01-07T15:51:56.882Z,1.67
2023-01-07T15:54:31.239Z,1.50
2023-01-07T15:57:00.118Z,1.65
2023-01-07T15:59:31.125Z,1.73
2023-01-07T16:01:59.808Z,1.80
2023-01-07T16:04:27.847Z,1.73
2023-01-07T16:06:58.331Z,2.45
2023-01-07T16:09:25.437Z,2.30
2023-01-07T16:11:52.892Z,2.22
2023-01-07T16:14:20.881Z,2.30
2023-01-07T16:16:47.960Z,1.92
2023-01-07T16:19:16.511Z,1.85
2023-01-07T16:21:49.962Z,3.13
2023-01-07T16:24:17.051Z,3.90
2023-01-07T16:26:44.572Z,2.05
2023-01-07T16:29:18.370Z,2.20
2023-01-07T16:31:45.489Z,2.17
2023-01-07T16:34:24.822Z,3.28
2023-01-07T16:36:57.793Z,3.03
2023-01-07T16:39:26.037Z,2.35
2023-01-07T16:42:13.064Z,2.05
2023-01-07T16:44:40.055Z,2.20
2023-01-07T16:47:07.812Z,2.00
2023-01-07T16:49:34.933Z,2.10
2023-01-07T16:52:08.165Z,2.13
2023-01-07T16:54:37.273Z,2.30
2023-01-07T16:57:05.405Z,2.38
2023-01-07T16:59:33.640Z,2.55
2023-01-07T17:02:02.122Z,2.60
2023-01-07T17:04:29.955Z,2.33
2023-01-07T17:06:57.709Z,2.25
2023-01-07T17:09:29.514Z,2.08
2023-01-07T17:11:56.670Z,2.60
2023-01-07T17:14:36.936Z,2.22
2023-01-07T17:17:19.526Z,2.30
2023-01-07T17:20:06.831Z,3.00
2023-01-07T17:22:34.993Z,2.75
2023-01-07T17:25:21.605Z,2.80
2023-01-07T17:27:49.890Z,2.58
2023-01-07T17:30:18.236Z,2.70
2023-01-07T17:32:45.341Z,3.03
2023-01-07T17:35:16.508Z,2.72
2023-01-07T17:37:43.644Z,2.47
2023-01-07T17:40:11.057Z,2.85
2023-01-07T17:42:56.664Z,2.88
2023-01-07T17:45:23.659Z,3.80
2023-01-07T17:47:50.791Z,3.38
2023-01-07T17:50:18.257Z,2.55
2023-01-07T17:52:46.211Z,2.78
2023-01-07T17:55:32.082Z,2.33
2023-01-07T17:57:59.135Z,2.50
2023-01-07T18:00:27.494Z,2.25
2023-01-07T18:02:54.719Z,3.33
2023-01-07T18:05:24.048Z,3.70
2023-01-07T18:07:51.407Z,4.50
2023-01-07T18:10:20.911Z,3.05
2023-01-07T18:12:48.150Z,2.97
2023-01-07T18:15:17.373Z,3.95
2023-01-07T18:17:45.016Z,3.22
2023-01-07T18:20:12.234Z,2.33
2023-01-07T18:22:39.323Z,4.13
2023-01-07T18:25:06.737Z,3.08
2023-01-07T18:27:33.757Z,3.92
2023-01-07T18:30:00.766Z,2.78
2023-01-07T18:32:27.755Z,2.60
2023-01-07T18:34:54.778Z,2.60
2023-01-07T18:37:22.556Z,2.92
2023-01-07T18:39:49.578Z,3.17
2023-01-07T18:42:16.646Z,3.40
2023-01-07T18:44:43.674Z,2.80
2023-01-07T18:47:10.737Z,3.10
2023-01-07T18:49:37.719Z,3.42
2023-01-07T18:52:04.715Z,3.30
2023-01-07T18:54:33.309Z,3.70
2023-01-07T18:57:00.450Z,3.60
2023-01-07T18:59:27.477Z,4.43
2023-01-07T19:01:57.949Z,3.78
2023-01-07T19:06:52.045Z,3.80
2023-01-07T19:09:19.094Z,3.90
2023-01-07T19:11:46.401Z,3.10
2023-01-07T19:14:13.514Z,3.75
2023-01-07T19:16:40.559Z,3.47
2023-01-07T19:19:07.749Z,3.20
2023-01-07T19:21:34.963Z,3.78
2023-01-07T19:24:04.468Z,3.58
2023-01-07T19:26:31.573Z,4.32
2023-01-07T19:28:58.545Z,3.60
2023-01-07T19:31:25.647Z,3.80
2023-01-07T19:33:52.699Z,3.75
2023-01-07T19:36:20.594Z,4.07
2023-01-07T19:38:48.029Z,4.88
2023-01-07T19:41:16.228Z,4.25
2023-01-07T19:43:45.564Z,4.50
2023-01-07T19:46:12.922Z,5.65
2023-01-07T19:48:39.993Z,6.10
2023-01-07T19:51:07.214Z,5.55
2023-01-07T19:53:34.441Z,5.13
2023-01-07T19:56:02.029Z,4.47
2023-01-07T19:58:29.741Z,4.25
2023-01-07T20:00:56.866Z,4.13
2023-01-07T20:03:24.002Z,4.28
2023-01-07T20:05:51.106Z,4.22
2023-01-07T20:08:18.101Z,4.75
2023-01-07T20:10:45.084Z,4.65
2023-01-07T20:13:12.100Z,4.10
2023-01-07T20:15:39.068Z,4.72
2023-01-07T20:18:06.559Z,4.20
2023-01-07T20:20:33.692Z,4.47
2023-01-07T20:23:03.390Z,4.20
2023-01-07T20:25:30.408Z,3.87
2023-01-07T20:27:57.437Z,4.53
2023-01-07T20:30:24.462Z,4.10
2023-01-07T20:32:51.481Z,4.20
2023-01-07T20:35:18.483Z,4.35
2023-01-07T20:37:45.582Z,4.72
2023-01-07T20:40:13.351Z,4.47
2023-01-07T20:42:40.375Z,4.32
2023-01-07T20:45:07.818Z,4.20
2023-01-07T20:47:34.907Z,4.60
2023-01-07T20:50:02.004Z,3.90
2023-01-07T20:52:29.110Z,4.30
2023-01-07T20:54:56.098Z,4.28
2023-01-07T20:57:23.297Z,4.05
2023-01-07T20:59:50.401Z,4.65
2023-01-07T21:02:18.249Z,4.28
2023-01-07T21:04:45.412Z,4.30
2023-01-07T21:07:12.495Z,4.53
2023-01-07T21:09:39.552Z,4.75
2023-01-07T21:12:06.689Z,5.13
2023-01-07T21:14:33.827Z,5.10
2023-01-07T21:17:00.874Z,5.03
2023-01-07T21:19:27.965Z,4.65
2023-01-07T21:21:55.043Z,4.80
2023-01-07T21:24:22.156Z,5.03
2023-01-07T21:26:49.187Z,5.38
2023-01-07T21:29:16.392Z,5.75
2023-01-07T21:31:45.250Z,4.97
2023-01-07T21:34:12.468Z,5.50
2023-01-07T21:36:40.432Z,5.75
2023-01-07T21:39:08.484Z,5.60
2023-01-07T21:41:35.760Z,5.47
2023-01-07T21:44:02.806Z,5.53
2023-01-07T21:46:29.949Z,5.75
2023-01-07T21:48:57.159Z,6.15
2023-01-07T21:51:25.239Z,5.28
2023-01-07T21:53:54.318Z,6.00
2023-01-07T21:56:21.475Z,5.78
2023-01-07T21:58:48.775Z,6.03
2023-01-07T22:01:16.242Z,5.63
2023-01-07T22:03:49.542Z,6.18
2023-01-07T22:06:20.448Z,5.82
2023-01-07T22:08:47.741Z,5.90
2023-01-07T22:11:15.268Z,6.30
2023-01-07T22:13:42.327Z,5.97
2023-01-07T22:16:09.767Z,6.63
2023-01-07T22:18:36.942Z,6.85
2023-01-07T22:21:03.967Z,6.72
2023-01-07T22:23:31.125Z,6.63
2023-01-07T22:26:04.570Z,5.88
2023-01-07T22:28:31.837Z,6.18
2023-01-07T22:30:58.992Z,6.25
2023-01-07T22:33:26.044Z,6.70
2023-01-07T22:35:53.205Z,6.32
2023-01-07T22:38:20.847Z,6.45
2023-01-07T22:40:47.997Z,5.93
2023-01-07T22:43:15.380Z,6.30
2023-01-07T22:45:51.688Z,6.40
2023-01-07T22:48:19.446Z,6.50
2023-01-07T22:50:46.545Z,6.57
2023-01-07T22:53:13.608Z,6.03
2023-01-07T22:55:40.836Z,5.88
2023-01-07T22:58:07.945Z,6.60
2023-01-07T23:00:47.417Z,6.07
2023-01-07T23:03:14.603Z,6.10
2023-01-07T23:05:41.777Z,6.35
2023-01-07T23:08:08.987Z,6.57
2023-01-07T23:10:36.806Z,6.80
2023-01-07T23:13:04.239Z,7.40
2023-01-07T23:15:31.256Z,7.35
2023-01-07T23:17:58.311Z,7.78
2023-01-07T23:20:25.432Z,6.45
2023-01-07T23:22:52.532Z,6.57
2023-01-07T23:25:19.548Z,6.70
2023-01-07T23:27:46.576Z,6.85
2023-01-07T23:30:13.832Z,7.00
2023-01-07T23:32:40.915Z,6.85
2023-01-07T23:35:08.092Z,7.50
2023-01-07T23:37:35.127Z,7.00
2023-01-07T23:40:02.253Z,7.00
2023-01-07T23:42:29.353Z,6.95
2023-01-07T23:44:57.019Z,7.20
2023-01-07T23:47:24.376Z,8.15
2023-01-07T23:49:51.456Z,7.50
2023-01-07T23:52:18.515Z,7.82
2023-01-07T23:54:45.609Z,8.00
2023-01-07T23:57:12.636Z,7.25
2023-01-07T23:59:39.757Z,6.63
